createdAt,value
2023-03-13T00:01:38.278Z,99822.41
2023-03-13T00:04:05.039Z,99834.72
2023-03-13T00:06:34.611Z,99816.28
2023-03-13T00:09:02.443Z,99812.88
2023-03-13T00:11:29.448Z,99816.44
2023-03-13T00:14:00.255Z,99809.44
2023-03-13T00:16:27.983Z,99807.75
2023-03-13T00:18:55.785Z,99814.75
2023-03-13T00:21:24.916Z,99812.09
2023-03-13T00:23:51.950Z,99813.84
2023-03-13T00:26:21.294Z,99807.81
2023-03-13T00:28:48.633Z,99808.72
2023-03-13T00:31:20.891Z,99797.41
2023-03-13T00:33:49.770Z,99802.66
2023-03-13T00:36:19.133Z,99791.38
2023-03-13T00:38:45.780Z,99792.22
2023-03-13T00:41:14.550Z,99797.47
2023-03-13T00:43:42.443Z,99792.22
2023-03-13T00:46:09.753Z,99789.63
2023-03-13T00:48:37.028Z,99787.81
2023-03-13T00:51:04.566Z,99783.44
2023-03-13T00:53:31.663Z,99783.44
2023-03-13T00:56:00.821Z,99777.34
2023-03-13T00:58:28.940Z,99783.41
2023-03-13T01:00:56.062Z,99774.72
2023-03-13T01:03:25.581Z,99777.38
2023-03-13T01:05:57.255Z,99773.81
2023-03-13T01:08:23.957Z,99778.13
2023-03-13T01:10:50.564Z,99781.69
2023-03-13T01:13:17.226Z,99765.19
2023-03-13T01:15:43.906Z,99775.59
2023-03-13T01:18:10.550Z,99761.69
2023-03-13T01:20:38.561Z,99759.16
2023-03-13T01:23:05.180Z,99765.16
2023-03-13T01:25:31.761Z,99755.59
2023-03-13T01:27:58.397Z,99752.16
2023-03-13T01:30:24.993Z,99759.13
2023-03-13T01:32:51.614Z,99757.31
2023-03-13T01:35:19.426Z,99749.56
2023-03-13T01:37:47.135Z,99743.44
2023-03-13T01:40:13.883Z,99744.34
2023-03-13T01:42:50.812Z,99738.16
2023-03-13T01:45:54.849Z,99733.78
2023-03-13T01:48:31.863Z,99731.16
2023-03-13T01:51:00.946Z,99725.09
2023-03-13T01:53:28.903Z,99732.06
2023-03-13T01:55:56.090Z,99727.69
2023-03-13T01:58:22.725Z,99721.50
2023-03-13T02:00:49.780Z,99721.47
2023-03-13T02:03:20.214Z,99719.72
2023-03-13T02:05:48.154Z,99722.25
2023-03-13T02:08:19.156Z,99709.97
2023-03-13T02:10:51.957Z,99714.34
2023-03-13T02:13:20.335Z,99709.91
2023-03-13T02:15:47.929Z,99699.47
2023-03-13T02:18:16.751Z,99705.47
2023-03-13T02:20:43.420Z,99696.72
2023-03-13T02:23:33.201Z,99702.81
2023-03-13T02:26:00.542Z,99697.53
2023-03-13T02:28:34.980Z,99694.94
2023-03-13T02:31:01.897Z,99694.03
2023-03-13T02:33:35.950Z,99684.41
2023-03-13T02:36:03.401Z,99680.06
2023-03-13T02:38:31.682Z,99683.41
2023-03-13T02:41:00.112Z,99677.34
2023-03-13T02:43:31.094Z,99672.91
2023-03-13T02:46:18.892Z,99671.16
2023-03-13T02:48:48.243Z,99666.78
2023-03-13T02:51:20.595Z,99659.81
2023-03-13T02:53:49.616Z,99664.19
2023-03-13T02:56:17.935Z,99663.34
2023-03-13T02:58:51.607Z,99667.75
2023-03-13T03:01:18.380Z,99657.31
2023-03-13T03:03:45.094Z,99651.94
2023-03-13T03:06:11.981Z,99644.03
2023-03-13T03:08:41.484Z,99638.84
2023-03-13T03:11:08.372Z,99641.38
2023-03-13T03:13:35.020Z,99642.16
2023-03-13T03:16:09.536Z,99634.28
2023-03-13T03:18:37.006Z,99634.31
2023-03-13T03:21:06.279Z,99629.94
2023-03-13T03:23:33.932Z,99625.69
2023-03-13T03:26:01.158Z,99615.16
2023-03-13T03:28:28.064Z,99617.81
2023-03-13T03:30:55.100Z,99615.09
2023-03-13T03:33:22.713Z,99618.59
2023-03-13T03:35:50.359Z,99616.75
2023-03-13T03:38:17.458Z,99616.75
2023-03-13T03:40:44.059Z,99614.97
2023-03-13T03:43:10.666Z,99608.88
2023-03-13T03:45:37.260Z,99608.00
2023-03-13T03:48:03.967Z,99598.16
2023-03-13T03:50:30.594Z,99590.44
2023-03-13T15:52:22.753Z,98659.97
2023-03-13T15:54:50.599Z,98666.34
2023-03-13T15:57:22.304Z,98659.41
2023-03-13T15:59:50.053Z,98665.28
2023-03-13T16:02:19.924Z,98653.06
2023-03-13T16:04:46.804Z,98655.47
2023-03-13T16:07:20.587Z,98664.59
2023-03-13T16:09:48.045Z,98670.94
2023-03-13T16:12:14.888Z,98678.34
2023-03-13T16:14:42.171Z,98675.06
2023-03-13T16:17:19.533Z,98662.28
2023-03-13T16:19:47.226Z,98667.59
2023-03-13T16:22:14.729Z,98663.78
2023-03-13T16:24:41.553Z,98652.13
2023-03-13T16:27:19.835Z,98643.59
2023-03-13T16:29:46.869Z,98639.03
2023-03-13T16:32:16.217Z,98636.59
2023-03-13T16:34:43.128Z,98628.06
2023-03-13T16:37:15.084Z,98622.03
2023-03-13T16:39:42.234Z,98621.47
2023-03-13T16:42:09.364Z,98619.13
2023-03-13T16:44:35.960Z,98623.19
2023-03-13T16:47:06.723Z,98629.84
2023-03-13T16:49:33.468Z,98617.09
2023-03-13T16:52:00.131Z,98601.78
2023-03-13T16:54:26.735Z,98606.81
2023-03-13T16:56:53.391Z,98604.44
2023-03-13T16:59:19.980Z,98591.50
2023-03-13T17:01:47.344Z,98587.66
2023-03-13T17:04:14.314Z,98591.81
2023-03-13T17:06:42.485Z,98578.88
2023-03-13T17:09:15.329Z,98593.34
2023-03-13T17:11:42.608Z,98579.59
2023-03-13T17:14:09.468Z,98573.09
2023-03-13T17:16:39.171Z,98573.31
2023-03-13T17:19:09.161Z,98563.38
2023-03-13T17:21:36.824Z,98568.78
2023-03-13T17:24:03.949Z,98572.66
2023-03-13T17:26:38.604Z,98571.81
2023-03-13T17:29:07.278Z,98572.09
2023-03-13T17:31:38.329Z,98578.44
2023-03-13T17:34:05.972Z,98583.63
2023-03-13T17:36:32.702Z,98578.25
2023-03-13T17:39:00.736Z,98581.28
2023-03-13T17:41:29.677Z,98583.09
2023-03-13T17:43:56.668Z,98577.22
2023-03-13T17:46:49.293Z,98593.47
2023-03-13T17:49:17.757Z,98593.47
2023-03-13T17:51:46.154Z,98597.19
2023-03-13T17:54:15.213Z,98594.63
2023-03-13T17:56:43.201Z,98597.16
2023-03-13T17:59:15.463Z,98589.41
2023-03-13T18:01:42.671Z,98587.34
2023-03-13T18:04:10.477Z,98591.47
2023-03-13T18:06:38.411Z,98584.09
2023-03-13T18:09:10.076Z,98571.06
2023-03-13T18:11:37.478Z,98579.66
2023-03-13T18:14:05.507Z,98570.22
2023-03-13T18:16:37.683Z,98573.50
2023-03-13T18:19:13.648Z,98568.50
2023-03-13T18:21:40.264Z,98575.59
2023-03-13T18:24:06.965Z,98564.63
2023-03-13T18:26:35.500Z,98569.63
2023-03-13T18:29:03.639Z,98575.50
2023-03-13T18:31:31.925Z,98573.03
2023-03-13T18:33:59.492Z,98565.38
2023-03-13T18:36:26.682Z,98573.41
2023-03-13T18:38:53.707Z,98560.53
2023-03-13T18:41:20.409Z,98563.84
2023-03-13T18:43:47.916Z,98550.03
2023-03-13T18:46:31.325Z,98559.38
2023-03-13T18:48:58.382Z,98559.13
2023-03-13T18:51:26.115Z,98557.03
2023-03-13T18:53:54.245Z,98563.00
2023-03-13T18:56:32.809Z,98547.44
2023-03-13T18:59:00.430Z,98537.47
2023-03-13T19:01:29.612Z,98539.47
2023-03-13T19:03:56.780Z,98547.88
2023-03-13T19:06:27.396Z,98546.25
2023-03-13T19:08:57.252Z,98545.25
2023-03-13T19:11:26.326Z,98532.19
2023-03-13T19:13:53.448Z,98531.69
2023-03-13T19:16:22.783Z,98535.13
2023-03-13T19:18:50.001Z,98531.63
2023-03-13T19:21:27.692Z,98540.50
2023-03-13T19:23:55.176Z,98546.25
2023-03-13T19:26:28.440Z,98547.75
2023-03-13T19:28:55.170Z,98537.28
2023-03-13T19:31:22.332Z,98537.38
2023-03-13T19:33:49.549Z,98539.63
2023-03-13T19:36:18.538Z,98532.47
2023-03-13T19:38:45.445Z,98523.44
2023-03-13T19:41:13.555Z,98527.34
2023-03-13T19:43:40.863Z,98526.59
2023-03-13T19:46:27.778Z,98535.94
2023-03-13T19:48:59.831Z,98535.94
2023-03-13T19:51:27.715Z,98539.06
2023-03-13T19:53:55.498Z,98545.91
2023-03-13T19:56:24.537Z,98542.25
2023-03-13T19:58:52.980Z,98532.63
2023-03-13T20:01:19.915Z,98529.59
2023-03-13T20:03:46.623Z,98537.28
2023-03-13T20:06:22.174Z,98536.88
2023-03-13T20:08:49.147Z,98534.84
2023-03-13T20:11:16.316Z,98542.72
2023-03-13T20:13:43.112Z,98537.06
2023-03-13T20:16:13.419Z,98539.81
2023-03-13T20:18:43.313Z,98532.25
2023-03-13T20:21:10.332Z,98535.88
2023-03-13T20:23:36.941Z,98534.44
2023-03-13T20:26:08.365Z,98537.06
2023-03-13T20:28:39.357Z,98526.69
2023-03-13T20:31:06.459Z,98508.34
2023-03-13T20:33:33.461Z,98498.41
2023-03-13T20:36:01.975Z,98496.00
2023-03-13T20:38:29.150Z,98496.19
2023-03-13T20:40:57.033Z,98498.25
2023-03-13T20:43:24.092Z,98501.00
2023-03-13T20:45:51.077Z,98498.53
2023-03-13T20:48:18.020Z,98487.09
2023-03-13T20:50:44.740Z,98474.16
2023-03-13T20:53:12.307Z,98471.59
2023-03-13T20:55:39.189Z,98464.22
2023-03-13T20:58:06.023Z,98472.53
2023-03-13T21:00:33.049Z,98471.47
2023-03-13T21:03:00.243Z,98478.06
2023-03-13T21:05:27.125Z,98498.34
2023-03-13T21:07:54.158Z,98495.94
2023-03-13T21:10:21.018Z,98499.00
2023-03-13T21:12:47.600Z,98497.91
2023-03-13T21:15:14.192Z,98498.50
2023-03-13T21:17:40.761Z,98493.78
2023-03-13T21:20:11.993Z,98493.38
2023-03-13T21:22:40.055Z,98485.31
2023-03-13T21:25:08.137Z,98497.50
2023-03-13T21:27:35.695Z,98484.19
2023-03-13T21:30:04.932Z,98480.59
2023-03-13T21:32:31.701Z,98482.16
2023-03-13T21:34:58.335Z,98488.31
2023-03-13T21:37:24.962Z,98494.38
2023-03-13T21:39:52.490Z,98500.41
2023-03-13T21:42:20.729Z,98514.66
2023-03-13T21:44:48.557Z,98525.41
2023-03-13T21:47:24.426Z,98525.22
2023-03-13T21:49:52.876Z,98528.06
2023-03-13T21:52:20.646Z,98526.69
2023-03-13T21:54:47.783Z,98525.84
2023-03-13T21:57:15.660Z,98515.34
2023-03-13T21:59:42.750Z,98504.19
2023-03-13T22:02:13.376Z,98504.31
2023-03-13T22:04:40.666Z,98489.41
2023-03-13T22:07:07.644Z,98476.19
2023-03-13T22:09:42.547Z,98472.41
2023-03-13T22:12:09.539Z,98474.50
2023-03-13T22:14:36.363Z,98475.44
2023-03-13T22:17:02.982Z,98478.28
2023-03-13T22:19:29.797Z,98476.06
2023-03-13T22:21:56.400Z,98473.34
2023-03-13T22:24:23.333Z,98475.31
2023-03-13T22:26:50.082Z,98470.50
2023-03-13T22:29:16.668Z,98477.53
2023-03-13T22:31:43.498Z,98474.88
2023-03-13T22:34:10.093Z,98477.06
2023-03-13T22:36:38.054Z,98472.25
2023-03-13T22:39:04.725Z,98484.09
2023-03-13T22:41:31.838Z,98490.31
2023-03-13T22:43:59.036Z,98491.09
2023-03-13T22:46:25.868Z,98499.25
2023-03-13T22:48:52.819Z,98505.75
2023-03-13T22:51:19.535Z,98501.22
2023-03-13T22:53:49.405Z,98493.72
2023-03-13T22:56:16.085Z,98493.19
2023-03-13T22:58:42.906Z,98491.41
2023-03-13T23:01:17.508Z,98482.13
2023-03-13T23:03:44.858Z,98469.75
2023-03-13T23:06:16.412Z,98463.28
2023-03-13T23:08:43.986Z,98465.22
2023-03-13T23:11:11.084Z,98467.97
2023-03-13T23:13:38.210Z,98481.59
2023-03-13T23:16:09.978Z,98486.47
2023-03-13T23:18:37.819Z,98481.56
2023-03-13T23:21:08.788Z,98476.75
2023-03-13T23:23:36.013Z,98465.19
2023-03-13T23:26:06.478Z,98453.78
2023-03-13T23:28:35.152Z,98447.47
2023-03-13T23:31:09.700Z,98444.22
2023-03-13T23:33:36.852Z,98436.81
2023-03-13T23:36:08.055Z,98420.03
2023-03-13T23:38:35.511Z,98418.50
2023-03-13T23:41:11.277Z,98441.34
2023-03-13T23:43:38.195Z,98432.00
2023-03-13T23:46:05.095Z,98421.94
2023-03-13T23:48:32.057Z,98411.97
2023-03-13T23:50:58.750Z,98416.16
2023-03-13T23:53:25.349Z,98406.47
2023-03-13T23:55:58.716Z,98408.69
2023-03-13T23:58:25.721Z,98426.56
